Time;durP1;ratioP1;P1;durP2;ratioP2;P2;SDS_P1;SDS_P2;PMS_P1;PMS_P2;Temp;Humidity;BMP_temperature;BMP_pressure;BME280_temperature;BME280_humidity;BME280_pressure;Samples;Min_cycle;Max_cycle;Signal;HPM_P1;HPM_P2
2021/06/30 00:00:26;;;;;;;5.57;2.83;;;;;;;18.54;73.08;97929.41;5033535;28;20022;-60
2021/06/30 00:02:51;;;;;;;6.85;3.00;;;;;;;18.56;72.96;97935.31;5017667;28;20041;-60
2021/06/30 00:05:17;;;;;;;6.35;2.70;;;;;;;18.50;74.35;97938.75;5020032;28;20405;-60
2021/06/30 00:07:42;;;;;;;6.68;2.90;;;;;;;18.44;73.52;97932.53;5015293;28;20037;-60
2021/06/30 00:10:08;;;;;;;6.75;3.15;;;;;;;18.51;73.96;97934.31;5034729;28;20026;-60
2021/06/30 00:12:35;;;;;;;6.68;2.65;;;;;;;18.22;74.02;97916.25;5015496;28;20120;-60
2021/06/30 00:15:09;;;;;;;7.57;3.40;;;;;;;18.21;73.71;97893.59;5014046;28;20610;-60
2021/06/30 00:17:35;;;;;;;5.65;3.80;;;;;;;18.54;73.32;97931.25;5009088;28;20499;-60
2021/06/30 00:20:00;;;;;;;8.50;2.88;;;;;;;18.39;73.67;97916.56;5032934;28;20033;-59
2021/06/30 00:22:25;;;;;;;7.13;2.63;;;;;;;18.54;73.21;97933.88;5019017;28;20053;-60
2021/06/30 00:24:51;;;;;;;6.53;3.00;;;;;;;18.58;73.70;97942.97;5036376;28;20039;-60
2021/06/30 00:27:16;;;;;;;7.10;5.40;;;;;;;18.48;73.74;97932.13;5017253;28;20057;-60
2021/06/30 00:29:42;;;;;;;5.45;2.78;;;;;;;18.20;73.75;97888.56;5015293;28;20104;-60
2021/06/30 00:32:07;;;;;;;5.07;2.78;;;;;;;18.46;73.93;97932.31;5013402;28;20037;-60
2021/06/30 00:34:33;;;;;;;7.63;6.88;;;;;;;18.50;72.76;97925.59;5017144;28;20040;-60
2021/06/30 00:36:58;;;;;;;6.18;3.03;;;;;;;18.49;72.81;97928.44;5019257;28;20448;-60
2021/06/30 00:39:24;;;;;;;7.55;3.58;;;;;;;18.49;71.17;97917.91;5015093;28;20035;-60
2021/06/30 00:41:49;;;;;;;6.80;2.78;;;;;;;18.31;71.34;97887.06;5013811;28;20455;-59
2021/06/30 00:44:15;;;;;;;9.85;2.53;;;;;;;18.31;69.92;97871.25;5017699;28;20022;-60
2021/06/30 00:46:41;;;;;;;7.18;2.50;;;;;;;18.35;70.73;97877.72;5016262;28;20033;-60
2021/06/30 00:49:08;;;;;;;5.32;2.65;;;;;;;18.58;69.97;97903.47;5008574;28;20507;-60
2021/06/30 00:51:33;;;;;;;4.70;2.55;;;;;;;18.34;70.16;97881.38;5033510;28;20112;-60
2021/06/30 00:53:59;;;;;;;5.90;3.03;;;;;;;18.35;69.25;97875.09;5019043;28;20112;-60
2021/06/30 00:56:26;;;;;;;5.25;2.20;;;;;;;18.60;69.33;97911.97;5012362;28;20037;-60
2021/06/30 00:58:56;;;;;;;7.50;3.28;;;;;;;18.57;69.62;97915.84;5015334;28;20065;-60
2021/06/30 01:01:22;;;;;;;;;;;;;;;18.55;69.81;97909.97;5018051;28;20044;-59
2021/06/30 01:03:48;;;;;;;5.07;2.40;;;;;;;18.56;70.35;97903.72;5016087;28;19917;-60
2021/06/30 01:06:13;;;;;;;5.25;2.45;;;;;;;18.56;70.13;97911.63;5017646;28;20752;-60
2021/06/30 01:08:39;;;;;;;5.57;2.40;;;;;;;18.54;69.93;97908.34;5013030;28;20146;-60
2021/06/30 01:11:05;;;;;;;8.38;2.42;;;;;;;18.60;69.99;97912.78;5022077;28;20100;-60
2021/06/30 01:13:30;;;;;;;4.63;2.10;;;;;;;18.59;69.73;97910.38;5013953;28;20144;-59
2021/06/30 01:15:55;;;;;;;5.15;2.33;;;;;;;18.67;69.24;97915.34;5010316;28;20029;-60
2021/06/30 01:18:30;;;;;;;4.60;2.20;;;;;;;18.57;70.53;97904.50;5019455;28;20495;-60
2021/06/30 01:20:56;;;;;;;6.60;2.53;;;;;;;18.55;70.49;97912.63;5016256;28;20968;-60
2021/06/30 01:23:21;;;;;;;5.53;2.55;;;;;;;18.55;70.80;97909.19;5018728;28;20615;-60
2021/06/30 01:25:47;;;;;;;4.90;2.53;;;;;;;18.50;70.83;97920.34;5004042;28;20033;-60
2021/06/30 01:28:13;;;;;;;5.82;2.80;;;;;;;18.23;70.17;97888.13;5031606;28;20042;-60
2021/06/30 01:30:40;;;;;;;5.72;2.40;;;;;;;18.30;70.50;97906.50;5017951;28;20025;-60
2021/06/30 01:33:07;;;;;;;4.78;2.60;;;;;;;18.17;70.77;97883.72;5019088;28;20441;-60
2021/06/30 01:35:32;;;;;;;5.85;2.50;;;;;;;18.15;69.96;97870.75;5015393;28;20495;-60
2021/06/30 01:37:58;;;;;;;4.30;2.28;;;;;;;18.35;70.42;97909.31;5016090;28;20029;-60
2021/06/30 01:40:23;;;;;;;6.70;2.35;;;;;;;17.96;70.32;97855.88;5040559;28;20566;-60
2021/06/30 01:42:50;;;;;;;5.20;2.45;;;;;;;18.32;70.57;97907.09;5014862;28;20116;-60
2021/06/30 01:45:16;;;;;;;5.85;2.30;;;;;;;17.88;70.57;97838.53;5004765;28;20033;-60
2021/06/30 01:47:42;;;;;;;4.72;2.40;;;;;;;18.27;70.79;97915.59;5023471;28;20632;-57
2021/06/30 01:50:09;;;;;;;5.03;2.65;;;;;;;18.02;70.65;97881.38;5021918;28;20116;-60
2021/06/30 01:52:34;;;;;;;5.40;2.50;;;;;;;17.92;71.25;97871.28;5017161;28;20025;-59
2021/06/30 01:55:00;;;;;;;5.38;2.60;;;;;;;18.22;70.91;97912.81;5020443;28;20037;-60
2021/06/30 01:57:26;;;;;;;5.97;2.40;;;;;;;18.05;71.17;97873.03;5003471;28;20044;-60
2021/06/30 01:59:51;;;;;;;6.38;3.10;;;;;;;17.76;71.29;97848.06;5024475;28;20624;-60
2021/06/30 02:02:17;;;;;;;5.05;2.25;;;;;;;18.21;71.89;97921.72;5018786;28;20029;-60
2021/06/30 02:04:52;;;;;;;6.03;2.60;;;;;;;18.18;72.08;97908.97;5021965;28;20034;-60
2021/06/30 02:07:18;;;;;;;6.75;2.58;;;;;;;18.18;72.15;97917.69;5021708;28;20180;-59
2021/06/30 02:09:43;;;;;;;6.60;2.78;;;;;;;18.20;72.30;97922.75;5021071;28;20463;-59
2021/06/30 02:12:08;;;;;;;5.38;2.55;;;;;;;18.09;72.28;97907.63;5024122;28;20029;-59
2021/06/30 02:14:34;;;;;;;7.18;2.70;;;;;;;18.10;72.45;97911.88;5017090;28;20078;-58
2021/06/30 02:16:59;;;;;;;5.28;2.60;;;;;;;18.13;72.50;97917.53;5021503;28;20087;-59
2021/06/30 02:19:25;;;;;;;5.15;2.35;;;;;;;18.08;71.97;97908.66;5019629;28;20033;-59
2021/06/30 02:21:50;;;;;;;5.32;2.60;;;;;;;18.13;71.68;97912.25;5007353;28;20540;-59
2021/06/30 02:24:15;;;;;;;5.97;4.88;;;;;;;18.15;71.86;97914.69;5017561;28;20033;-59
2021/06/30 02:26:41;;;;;;;5.18;2.60;;;;;;;18.08;72.60;97919.97;5022697;28;20940;-59
2021/06/30 02:29:06;;;;;;;5.85;2.40;;;;;;;17.83;72.75;97880.38;5034462;28;20040;-59
2021/06/30 02:31:31;;;;;;;6.03;3.17;;;;;;;18.06;72.18;97909.66;5022086;28;20594;-59
2021/06/30 02:33:57;;;;;;;9.38;2.88;;;;;;;18.15;72.15;97912.06;5022487;28;20044;-59
2021/06/30 02:36:22;;;;;;;7.80;2.40;;;;;;;18.18;71.67;97915.06;5023216;28;20582;-60
2021/06/30 02:38:48;;;;;;;5.80;2.63;;;;;;;18.22;71.08;97905.72;5019766;28;20540;-59
2021/06/30 02:41:14;;;;;;;7.75;6.22;;;;;;;18.19;71.67;97914.03;5024102;28;20033;-59
2021/06/30 02:43:41;;;;;;;7.10;3.00;;;;;;;18.17;72.28;97905.56;5018700;28;20040;-59
2021/06/30 02:46:06;;;;;;;6.10;4.93;;;;;;;18.18;72.76;97901.91;5006899;28;20503;-59
2021/06/30 02:48:32;;;;;;;7.20;2.95;;;;;;;18.23;72.73;97898.63;5020320;28;20036;-59
2021/06/30 02:50:57;;;;;;;5.57;3.47;;;;;;;18.19;72.49;97900.88;5015530;28;20033;-59
2021/06/30 02:53:23;;;;;;;5.50;2.72;;;;;;;18.14;72.50;97889.38;5023755;28;20041;-59
2021/06/30 02:55:48;;;;;;;5.20;2.33;;;;;;;18.04;72.75;97890.66;5021817;28;20038;-59
2021/06/30 02:58:13;;;;;;;8.07;2.97;;;;;;;18.06;72.96;97896.50;5032319;28;20373;-59
2021/06/30 03:00:39;;;;;;;5.93;2.95;;;;;;;18.06;72.94;97893.06;5011775;28;20033;-59
2021/06/30 03:03:05;;;;;;;5.57;3.10;;;;;;;17.74;72.75;97850.94;5022298;28;20034;-59
2021/06/30 03:05:30;;;;;;;5.80;2.80;;;;;;;18.00;73.28;97893.91;5021218;28;20068;-59
2021/06/30 03:07:56;;;;;;;6.72;3.10;;;;;;;18.05;72.72;97886.19;5019506;28;20029;-59
2021/06/30 03:10:21;;;;;;;5.65;3.42;;;;;;;17.81;72.15;97849.03;5021270;28;20064;-59
2021/06/30 03:12:47;;;;;;;6.20;3.92;;;;;;;18.03;72.03;97894.31;5017674;28;20575;-59
2021/06/30 03:15:14;;;;;;;5.55;2.65;;;;;;;18.04;71.78;97885.38;5024519;28;20042;-60
2021/06/30 03:17:40;;;;;;;5.78;2.83;;;;;;;18.15;71.77;97891.00;5012592;28;20029;-59
2021/06/30 03:20:08;;;;;;;6.82;2.63;;;;;;;17.88;71.98;97846.41;5019907;28;20376;-60
2021/06/30 03:22:34;;;;;;;4.88;2.75;;;;;;;18.09;72.33;97892.66;5016022;28;20030;-59
2021/06/30 03:25:00;;;;;;;7.30;3.30;;;;;;;18.07;73.12;97899.97;5023705;28;20041;-60
2021/06/30 03:27:25;;;;;;;6.38;3.53;;;;;;;18.03;71.90;97878.53;5023476;28;20056;-60
2021/06/30 03:29:51;;;;;;;7.75;5.75;;;;;;;17.85;71.82;97852.91;5020873;28;20036;-59
2021/06/30 03:32:16;;;;;;;6.10;3.83;;;;;;;17.98;71.81;97869.63;5009741;28;20036;-59
2021/06/30 03:34:41;;;;;;;5.63;2.50;;;;;;;18.22;71.86;97897.03;5011299;28;20092;-59
2021/06/30 03:37:07;;;;;;;7.80;3.20;;;;;;;18.15;72.05;97885.75;5016989;28;20045;-59
2021/06/30 03:39:32;;;;;;;7.53;3.05;;;;;;;18.18;71.71;97890.56;5021696;28;20037;-59
2021/06/30 03:41:58;;;;;;;6.43;2.88;;;;;;;18.14;71.42;97887.53;5022080;28;20099;-59
2021/06/30 03:44:23;;;;;;;6.18;2.90;;;;;;;18.23;71.50;97896.00;5022772;28;20052;-60
2021/06/30 03:46:50;;;;;;;6.72;2.90;;;;;;;18.26;71.45;97895.59;5016447;28;20089;-60
2021/06/30 03:49:16;;;;;;;5.15;2.90;;;;;;;18.30;71.53;97902.03;5016312;28;20061;-59
2021/06/30 03:51:41;;;;;;;4.72;2.30;;;;;;;18.35;71.03;97896.94;5016678;28;20107;-60
2021/06/30 03:54:09;;;;;;;6.43;4.40;;;;;;;18.29;71.37;97883.81;5015583;28;20032;-59
2021/06/30 03:56:34;;;;;;;6.22;2.95;;;;;;;18.34;71.44;97889.25;5020713;28;20037;-59
2021/06/30 03:58:59;;;;;;;5.60;2.90;;;;;;;18.26;72.34;97882.44;5034052;28;20113;-59
2021/06/30 04:01:25;;;;;;;5.55;2.83;;;;;;;18.30;72.63;97888.88;5017911;28;20033;-59
2021/06/30 04:03:55;;;;;;;7.25;3.90;;;;;;;18.23;71.57;97885.47;5018161;28;20405;-59
2021/06/30 04:06:21;;;;;;;5.95;3.00;;;;;;;18.23;71.15;97885.47;5017000;28;20432;-59
2021/06/30 04:08:47;;;;;;;7.53;2.65;;;;;;;18.23;71.52;97898.63;5033306;28;20037;-60
2021/06/30 04:11:13;;;;;;;7.72;6.95;;;;;;;18.14;71.11;97881.50;5019057;28;20125;-60
2021/06/30 04:13:38;;;;;;;5.80;3.50;;;;;;;18.18;71.70;97896.66;5013792;28;20574;-59
2021/06/30 04:16:04;;;;;;;15.82;14.65;;;;;;;18.16;72.06;97896.06;5022729;28;20045;-59
2021/06/30 04:18:30;;;;;;;5.25;2.90;;;;;;;18.09;72.23;97882.13;5020213;28;20398;-60
2021/06/30 04:20:55;;;;;;;5.93;2.80;;;;;;;17.95;72.38;97862.97;5030984;28;20033;-60
2021/06/30 04:23:20;;;;;;;5.00;2.80;;;;;;;18.27;71.99;97904.28;5026602;28;20097;-60
2021/06/30 04:25:48;;;;;;;8.05;4.72;;;;;;;18.21;71.73;97901.47;5020303;28;20037;-60
2021/06/30 04:28:14;;;;;;;5.10;2.60;;;;;;;18.14;71.98;97897.28;5010290;28;20413;-60
2021/06/30 04:30:40;;;;;;;7.28;2.83;;;;;;;18.20;72.21;97902.50;5015520;28;20029;-59
2021/06/30 04:33:06;;;;;;;8.57;3.00;;;;;;;17.88;72.12;97861.41;5018404;28;20088;-59
2021/06/30 04:35:31;;;;;;;5.15;2.80;;;;;;;18.04;72.21;97877.50;5018588;28;20037;-60
2021/06/30 04:37:56;;;;;;;6.15;2.85;;;;;;;18.13;72.22;97887.78;5019978;28;20029;-59
2021/06/30 04:40:22;;;;;;;5.13;2.60;;;;;;;18.22;72.30;97897.03;5014836;28;20040;-59
2021/06/30 04:42:47;;;;;;;6.82;3.30;;;;;;;18.18;73.19;97895.81;5021914;28;20037;-60
2021/06/30 04:45:13;;;;;;;5.57;2.70;;;;;;;18.04;72.49;97884.59;5020600;28;20034;-60
2021/06/30 04:47:38;;;;;;;6.20;2.90;;;;;;;17.82;73.31;97836.72;5014926;28;20421;-60
2021/06/30 04:50:04;;;;;;;5.57;2.97;;;;;;;18.08;73.06;97896.28;5020151;28;20036;-59
2021/06/30 04:52:30;;;;;;;6.57;3.35;;;;;;;18.09;72.88;97897.91;5015508;28;20034;-60
2021/06/30 04:54:55;;;;;;;7.47;2.97;;;;;;;18.08;72.69;97904.19;5022180;28;20042;-59
2021/06/30 04:57:20;;;;;;;7.22;2.97;;;;;;;18.16;72.90;97903.13;5014673;28;20026;-59
2021/06/30 04:59:46;;;;;;;6.15;3.17;;;;;;;17.92;72.70;97860.75;5018458;28;20049;-59
2021/06/30 05:02:11;;;;;;;7.53;3.33;;;;;;;17.84;72.52;97853.09;5035025;28;20079;-59
2021/06/30 05:04:37;;;;;;;6.95;3.25;;;;;;;18.09;72.34;97891.84;5020212;28;20115;-59
2021/06/30 05:07:02;;;;;;;8.05;2.80;;;;;;;18.22;71.93;97892.56;5015822;28;20036;-60
2021/06/30 05:09:28;;;;;;;6.10;2.97;;;;;;;18.24;72.51;97901.06;5017566;28;20442;-60
2021/06/30 05:11:53;;;;;;;7.03;2.80;;;;;;;18.22;72.70;97903.09;5021008;28;20068;-59
2021/06/30 05:14:18;;;;;;;5.57;3.03;;;;;;;17.93;73.10;97854.50;5017046;28;20038;-59
2021/06/30 05:16:44;;;;;;;4.90;2.80;;;;;;;18.17;72.56;97881.88;5018487;28;20770;-59
2021/06/30 05:19:09;;;;;;;6.10;2.83;;;;;;;18.33;72.10;97901.63;5019547;28;20148;-60
2021/06/30 05:21:35;;;;;;;9.73;3.08;;;;;;;18.35;71.62;97901.41;5017992;28;20360;-60
2021/06/30 05:24:00;;;;;;;5.53;2.85;;;;;;;18.40;71.71;97906.84;5019746;28;20567;-59
2021/06/30 05:26:26;;;;;;;6.70;3.00;;;;;;;18.51;71.92;97900.91;5015484;28;20030;-59
2021/06/30 05:28:51;;;;;;;5.95;3.03;;;;;;;18.57;71.77;97896.63;5028947;28;20103;-59
2021/06/30 05:31:17;;;;;;;4.55;2.70;;;;;;;18.52;70.36;97881.44;5016437;28;20057;-59
2021/06/30 05:33:42;;;;;;;5.97;2.70;;;;;;;18.68;70.39;97889.84;5020558;28;20035;-60
2021/06/30 05:36:08;;;;;;;6.05;2.78;;;;;;;18.77;70.49;97899.91;5022022;28;20064;-60
2021/06/30 05:38:33;;;;;;;5.93;2.65;;;;;;;18.73;69.62;97872.38;5031837;28;20042;-60
2021/06/30 05:40:59;;;;;;;4.53;2.50;;;;;;;18.89;69.31;97897.41;5019614;28;20034;-60
2021/06/30 05:43:24;;;;;;;6.32;2.92;;;;;;;18.82;69.12;97900.09;5016129;28;20045;-60
2021/06/30 05:45:50;;;;;;;5.18;2.53;;;;;;;18.54;68.77;97853.06;5018860;28;20440;-60
2021/06/30 05:48:15;;;;;;;5.57;2.58;;;;;;;18.78;68.93;97898.06;5014387;28;20033;-60
2021/06/30 05:50:41;;;;;;;5.38;2.53;;;;;;;18.52;69.72;97855.13;5015396;28;20045;-59
2021/06/30 05:53:06;;;;;;;4.10;2.33;;;;;;;18.82;68.84;97896.66;4998692;28;20021;-60
2021/06/30 05:55:32;;;;;;;5.05;2.30;;;;;;;18.56;68.83;97850.22;5007257;28;20089;-60
2021/06/30 05:57:57;;;;;;;6.00;2.20;;;;;;;18.84;67.66;97891.97;5017863;28;20184;-60
2021/06/30 06:00:24;;;;;;;4.63;2.33;;;;;;;18.91;66.98;97887.47;5018290;28;20124;-60
2021/06/30 06:02:49;;;;;;;4.72;2.50;;;;;;;18.72;66.49;97848.91;5016406;28;20072;-60
2021/06/30 06:05:16;;;;;;;5.90;2.42;;;;;;;18.96;66.69;97894.72;5014607;28;20064;-60
2021/06/30 06:07:42;;;;;;;5.18;2.53;;;;;;;19.00;66.07;97888.81;5014745;28;20029;-60
2021/06/30 06:10:09;;;;;;;4.50;2.30;;;;;;;18.80;66.28;97851.25;5016394;28;20018;-60
2021/06/30 06:12:35;;;;;;;6.43;2.75;;;;;;;19.06;66.71;97895.03;5016449;28;20044;-61
2021/06/30 06:15:01;;;;;;;13.18;4.32;;;;;;;19.19;66.50;97894.91;5014355;28;20033;-60
2021/06/30 06:17:26;;;;;;;5.10;2.00;;;;;;;19.23;64.50;97890.00;5015764;28;20472;-59
2021/06/30 06:19:51;;;;;;;5.20;1.85;;;;;;;19.18;63.50;97889.84;5021168;28;20041;-59
2021/06/30 06:22:17;;;;;;;6.00;2.28;;;;;;;19.18;64.31;97889.84;5016003;28;20029;-60
2021/06/30 06:24:43;;;;;;;4.85;2.20;;;;;;;19.21;64.67;97900.75;5020482;28;20088;-60
2021/06/30 06:27:08;;;;;;;11.27;2.50;;;;;;;19.25;64.29;97895.84;5021653;28;20030;-59
2021/06/30 06:29:34;;;;;;;7.22;2.30;;;;;;;19.41;65.28;97897.13;5017443;28;20038;-60
2021/06/30 06:32:00;;;;;;;7.22;2.50;;;;;;;19.42;65.38;97897.91;5019737;28;20034;-60
2021/06/30 06:34:26;;;;;;;5.95;2.30;;;;;;;19.56;65.11;97899.41;5012195;28;20140;-60
2021/06/30 06:36:52;;;;;;;8.02;2.63;;;;;;;19.47;65.97;97893.59;5021721;28;20120;-60
2021/06/30 06:39:19;;;;;;;4.40;2.13;;;;;;;19.47;66.45;97890.97;5038336;28;20379;-59
2021/06/30 06:41:46;;;;;;;6.80;2.17;;;;;;;19.29;65.73;97854.84;5020061;28;20033;-60
2021/06/30 06:44:11;;;;;;;5.88;2.67;;;;;;;19.51;67.39;97888.69;5029367;28;20506;-60
2021/06/30 06:46:38;;;;;;;5.22;2.30;;;;;;;19.50;65.87;97881.81;5016800;28;20042;-60
2021/06/30 06:49:05;;;;;;;5.47;2.17;;;;;;;19.69;65.41;97887.88;5016848;28;20459;-59
2021/06/30 06:51:31;;;;;;;7.05;2.53;;;;;;;19.73;65.96;97892.53;5016250;28;20034;-60
2021/06/30 06:53:56;;;;;;;6.68;2.40;;;;;;;19.69;65.53;97893.16;5033004;28;20088;-60
2021/06/30 06:56:26;;;;;;;5.47;2.90;;;;;;;19.67;63.18;97892.59;5024639;28;20040;-59
2021/06/30 06:58:54;;;;;;;5.55;2.30;;;;;;;19.61;63.48;97889.00;5015003;28;20227;-59
2021/06/30 07:01:21;;;;;;;5.77;2.40;;;;;;;19.76;63.63;97884.16;5022375;28;20136;-60
2021/06/30 07:03:47;;;;;;;4.70;2.30;;;;;;;19.70;63.32;97879.75;5019305;28;20037;-60
2021/06/30 07:06:13;;;;;;;6.10;2.30;;;;;;;19.70;63.79;97887.66;5021095;28;20549;-60
2021/06/30 07:08:38;;;;;;;5.15;2.40;;;;;;;19.40;64.64;97856.78;5017236;28;20041;-59
2021/06/30 07:11:04;;;;;;;4.38;2.20;;;;;;;19.74;63.62;97880.94;5032180;28;20068;-60
2021/06/30 07:13:30;;;;;;;6.28;2.40;;;;;;;19.86;65.31;97901.31;5016915;28;20047;-60
2021/06/30 07:15:55;;;;;;;6.38;2.22;;;;;;;19.84;64.79;97900.72;5034665;28;20041;-60
2021/06/30 07:18:20;;;;;;;4.68;2.00;;;;;;;20.01;63.10;97893.81;5018377;28;20724;-58
2021/06/30 07:20:46;;;;;;;4.90;2.10;;;;;;;19.96;63.48;97899.75;5014068;28;20041;-59
2021/06/30 07:23:12;;;;;;;5.75;2.22;;;;;;;20.05;63.52;97900.25;5018454;28;20030;-60
2021/06/30 07:25:38;;;;;;;4.95;2.40;;;;;;;19.75;63.32;97856.19;5014581;28;20029;-59
2021/06/30 07:28:04;;;;;;;4.70;2.65;;;;;;;19.97;61.44;97892.66;5019843;28;20037;-60
2021/06/30 07:30:30;;;;;;;10.25;9.43;;;;;;;20.08;62.62;97897.19;5012571;28;20681;-60
2021/06/30 07:32:56;;;;;;;5.72;2.33;;;;;;;20.06;63.41;97898.41;5018074;28;20128;-60
2021/06/30 07:35:22;;;;;;;5.22;1.90;;;;;;;19.96;63.35;97891.03;5019598;28;20037;-60
2021/06/30 07:37:48;;;;;;;5.35;2.08;;;;;;;20.00;61.73;97889.56;5014377;28;20022;-60
2021/06/30 07:40:14;;;;;;;6.35;2.25;;;;;;;20.14;62.73;97895.47;5012363;28;20063;-59
2021/06/30 07:42:39;;;;;;;8.90;2.13;;;;;;;20.14;62.09;97898.13;5017579;28;20033;-60
2021/06/30 07:45:05;;;;;;;5.15;2.45;;;;;;;20.22;61.88;97907.56;5010912;28;20033;-60
2021/06/30 07:47:31;;;;;;;6.05;2.90;;;;;;;20.31;62.22;97912.28;5015565;28;20040;-60
2021/06/30 07:49:56;;;;;;;5.95;2.33;;;;;;;20.18;62.88;97899.28;5008831;28;20025;-60
2021/06/30 07:52:22;;;;;;;6.47;2.78;;;;;;;20.22;63.25;97910.19;5011601;28;20653;-59
2021/06/30 07:54:47;;;;;;;5.75;2.53;;;;;;;20.20;64.09;97897.22;5012417;28;20022;-59
2021/06/30 07:57:13;;;;;;;4.65;2.30;;;;;;;20.09;63.91;97874.22;5019494;28;20025;-59
2021/06/30 07:59:38;;;;;;;5.40;2.25;;;;;;;20.32;61.96;97903.34;5016729;28;20044;-60
2021/06/30 08:02:04;;;;;;;6.53;2.42;;;;;;;20.44;61.37;97908.66;5028076;28;20498;-59
2021/06/30 08:04:29;;;;;;;4.68;2.17;;;;;;;20.47;62.95;97910.06;5026618;28;20679;-60
2021/06/30 08:06:54;;;;;;;6.10;2.17;;;;;;;20.60;58.81;97903.75;5009053;28;20093;-60
2021/06/30 08:09:20;;;;;;;4.75;2.25;;;;;;;20.47;60.29;97870.44;5011298;28;20030;-58
2021/06/30 08:11:45;;;;;;;4.55;2.00;;;;;;;20.38;58.93;97855.97;5020133;28;20060;-60
2021/06/30 08:14:11;;;;;;;5.15;2.22;;;;;;;20.84;57.82;97902.00;5013180;28;20108;-60
2021/06/30 08:16:37;;;;;;;4.78;1.88;;;;;;;21.07;56.06;97894.06;5013250;28;20056;-60
2021/06/30 08:19:03;;;;;;;5.70;1.80;;;;;;;21.06;55.28;97899.59;5030462;28;20108;-60
2021/06/30 08:21:28;;;;;;;4.18;1.60;;;;;;;21.11;54.98;97900.50;5030822;28;20114;-61
2021/06/30 08:23:54;;;;;;;5.07;1.83;;;;;;;21.24;54.71;97898.66;5009830;28;20034;-59
2021/06/30 08:26:19;;;;;;;5.22;1.80;;;;;;;21.15;53.27;97906.13;5012219;28;20038;-60
2021/06/30 08:28:46;;;;;;;3.95;1.55;;;;;;;21.40;52.21;97890.03;5018008;28;20574;-60
2021/06/30 08:31:12;;;;;;;5.05;1.50;;;;;;;21.49;51.99;97886.03;5030002;28;20653;-60
2021/06/30 08:33:37;;;;;;;4.72;1.58;;;;;;;21.95;51.19;97888.78;5018268;28;20529;-59
2021/06/30 08:36:04;;;;;;;5.03;1.90;;;;;;;22.74;49.92;97880.09;5015689;28;20479;-60
2021/06/30 08:38:29;;;;;;;4.20;1.80;;;;;;;23.07;48.34;97875.84;5017071;28;20484;-60
2021/06/30 08:40:56;;;;;;;5.57;1.80;;;;;;;23.23;48.57;97868.91;5019452;28;20056;-60
2021/06/30 08:43:22;;;;;;;3.65;1.30;;;;;;;22.92;47.94;97830.53;5018920;28;20110;-60
2021/06/30 08:45:48;;;;;;;3.83;1.73;;;;;;;22.68;49.36;97873.13;5017800;28;20026;-59
2021/06/30 08:48:15;;;;;;;5.20;1.70;;;;;;;22.32;51.00;97853.97;5019762;28;20025;-58
2021/06/30 08:50:41;;;;;;;4.00;1.70;;;;;;;22.30;51.41;97881.75;5019972;28;20269;-60
2021/06/30 08:53:10;;;;;;;7.40;1.70;;;;;;;21.87;53.01;97891.81;5017213;28;20021;-60
2021/06/30 08:55:45;;;;;;;6.15;2.00;;;;;;;21.27;56.42;97830.28;5029033;28;20099;-60
2021/06/30 08:58:12;;;;;;;5.03;2.08;;;;;;;21.51;58.36;97891.09;5017039;28;20082;-59
2021/06/30 09:00:38;;;;;;;6.22;2.28;;;;;;;21.47;59.00;97877.53;5020736;28;20037;-60
2021/06/30 09:03:05;;;;;;;6.72;2.40;;;;;;;21.52;63.29;97886.59;5014605;28;20546;-60
2021/06/30 09:07:56;;;;;;;7.20;2.40;;;;;;;21.31;67.78;97879.00;5019914;28;20025;-59
2021/06/30 09:10:35;;;;;;;7.90;2.60;;;;;;;21.33;65.70;97891.19;5034690;28;20112;-60
2021/06/30 09:13:01;;;;;;;;;;;;;;;21.44;65.65;97898.31;5018712;28;20771;-59
2021/06/30 09:15:30;;;;;;;6.03;2.72;;;;;;;22.12;62.73;97865.00;5032603;28;19917;-59
2021/06/30 09:18:16;;;;;;;7.18;2.28;;;;;;;23.07;55.63;97869.75;5012464;28;20033;-59
2021/06/30 09:20:42;;;;;;;4.80;2.03;;;;;;;22.80;53.40;97881.81;5035062;28;20037;-59
2021/06/30 09:23:07;;;;;;;4.40;2.00;;;;;;;22.44;54.25;97875.13;5012764;28;20069;-59
2021/06/30 09:25:41;;;;;;;6.32;2.10;;;;;;;22.56;56.71;97878.50;5011403;28;20781;-59
2021/06/30 09:28:19;;;;;;;6.93;2.30;;;;;;;22.44;59.09;97901.59;5019688;28;20025;-60
2021/06/30 09:30:55;;;;;;;5.35;2.05;;;;;;;22.33;58.45;97886.59;5008287;28;20121;-58
2021/06/30 09:33:20;;;;;;;6.10;2.25;;;;;;;22.43;56.14;97861.09;5018004;28;20817;-60
2021/06/30 09:35:46;;;;;;;6.10;2.22;;;;;;;22.38;60.87;97892.78;5019168;28;20025;-59
2021/06/30 09:38:32;;;;;;;6.20;2.28;;;;;;;23.36;61.71;97884.47;5029055;28;20030;-59
2021/06/30 09:40:58;;;;;;;4.43;2.15;;;;;;;23.64;55.13;97842.09;5016308;28;20095;-59
2021/06/30 09:43:34;;;;;;;4.13;1.90;;;;;;;22.96;52.64;97839.59;5012414;28;20037;-60
2021/06/30 09:46:15;;;;;;;5.80;2.00;;;;;;;23.59;53.82;97840.19;5020437;28;20029;-59
2021/06/30 09:48:41;;;;;;;5.93;1.90;;;;;;;24.28;53.51;97870.69;5012884;28;20136;-59
2021/06/30 09:51:16;;;;;;;5.90;1.70;;;;;;;23.86;48.01;97880.06;5014093;28;20112;-59
2021/06/30 09:53:41;;;;;;;5.07;2.05;;;;;;;23.71;49.97;97872.72;5014462;28;20024;-59
2021/06/30 09:56:13;;;;;;;4.30;1.80;;;;;;;22.91;52.53;97832.41;5010517;28;20026;-59
2021/06/30 09:58:38;;;;;;;5.97;1.90;;;;;;;22.95;52.82;97875.13;5009393;28;20039;-59
2021/06/30 10:01:18;;;;;;;4.30;1.90;;;;;;;22.78;53.66;97875.94;5010429;28;20037;-59
2021/06/30 10:03:45;;;;;;;6.07;2.00;;;;;;;22.68;55.29;97878.41;5018303;28;20067;-59
2021/06/30 10:06:25;;;;;;;5.78;2.08;;;;;;;23.06;52.19;97868.16;5017276;28;20022;-59
2021/06/30 10:08:50;;;;;;;5.35;2.13;;;;;;;23.26;52.96;97868.44;5008544;28;20072;-59
2021/06/30 10:11:16;;;;;;;8.70;2.30;;;;;;;23.29;52.24;97864.47;5020034;28;20115;-59
2021/06/30 10:13:41;;;;;;;4.55;2.00;;;;;;;23.58;52.31;97865.09;5016420;28;20033;-59
2021/06/30 10:16:07;;;;;;;4.90;2.35;;;;;;;23.74;52.66;97856.28;5017093;28;20029;-59
2021/06/30 10:18:33;;;;;;;8.27;2.55;;;;;;;23.56;49.65;97856.59;5014378;28;20044;-59
2021/06/30 10:20:59;;;;;;;6.53;2.55;;;;;;;23.53;49.56;97855.25;5013501;28;20030;-59
2021/06/30 10:23:27;;;;;;;8.43;2.38;;;;;;;23.36;48.65;97849.19;5018931;28;20029;-59
2021/06/30 10:25:54;;;;;;;6.88;2.20;;;;;;;23.44;49.50;97848.78;5016808;28;20108;-59
2021/06/30 10:28:20;;;;;;;5.32;2.25;;;;;;;23.52;49.76;97848.31;5020286;28;20029;-58
2021/06/30 10:30:46;;;;;;;5.68;2.20;;;;;;;23.63;48.77;97854.56;4998023;28;20039;-59
2021/06/30 10:33:29;;;;;;;6.15;2.22;;;;;;;23.71;50.80;97859.44;5017457;28;20037;-59
2021/06/30 10:35:55;;;;;;;5.75;2.10;;;;;;;23.57;49.48;97853.69;5009022;28;20026;-59
2021/06/30 10:38:21;;;;;;;5.60;2.33;;;;;;;23.56;47.68;97860.03;4999518;28;20055;-58
2021/06/30 10:40:51;;;;;;;4.22;2.20;;;;;;;23.74;46.59;97852.81;5002165;28;20052;-58
2021/06/30 10:43:17;;;;;;;5.65;2.17;;;;;;;23.71;48.19;97842.69;5028824;28;20543;-59
2021/06/30 10:45:42;;;;;;;7.95;3.13;;;;;;;23.84;47.37;97849.50;5024274;28;20128;-59
2021/06/30 10:48:11;;;;;;;8.05;3.28;;;;;;;23.79;48.05;97850.22;5028648;28;20037;-59
2021/06/30 10:50:43;;;;;;;8.32;2.83;;;;;;;24.03;47.71;97842.81;5028600;28;20036;-59
2021/06/30 10:53:12;;;;;;;9.55;3.03;;;;;;;24.08;46.39;97808.34;5015610;28;20734;-59
2021/06/30 10:55:39;;;;;;;9.68;3.13;;;;;;;24.22;46.58;97834.47;5013196;28;20042;-59
2021/06/30 10:58:13;;;;;;;7.45;2.92;;;;;;;24.23;48.36;97833.44;5012475;28;20026;-59
2021/06/30 11:00:47;;;;;;;7.55;2.90;;;;;;;23.97;47.71;97796.03;5012785;28;20057;-59
2021/06/30 11:03:25;;;;;;;6.70;2.30;;;;;;;24.26;46.49;97838.22;5016766;28;20357;-59
2021/06/30 11:05:55;;;;;;;7.78;2.60;;;;;;;24.09;46.06;97831.19;5018262;28;20029;-59
2021/06/30 11:08:41;;;;;;;6.55;2.70;;;;;;;23.88;46.60;97832.06;5016775;28;20026;-59
2021/06/30 11:11:06;;;;;;;7.35;2.70;;;;;;;23.83;47.28;97824.81;5014011;28;20030;-59
2021/06/30 11:13:54;;;;;;;10.35;3.20;;;;;;;24.10;48.07;97818.72;5020945;28;20076;-59
2021/06/30 11:16:38;;;;;;;8.98;3.22;;;;;;;24.07;46.45;97820.00;5014684;28;20819;-59
2021/06/30 11:19:07;;;;;;;8.50;3.92;;;;;;;23.88;46.62;97786.91;5019528;28;20044;-59
2021/06/30 11:21:58;;;;;;;9.80;4.22;;;;;;;24.17;48.03;97814.81;5012298;28;20026;-59
2021/06/30 11:27:33;;;;;;;7.82;3.83;;;;;;;24.30;45.70;97808.25;5011785;28;20124;-59
2021/06/30 11:30:05;;;;;;;6.40;3.17;;;;;;;24.31;45.48;97814.38;5016894;28;20088;-59
2021/06/30 11:35:15;;;;;;;8.27;3.40;;;;;;;24.35;45.45;97804.84;5011829;28;20120;-59
2021/06/30 11:37:42;;;;;;;8.18;3.15;;;;;;;24.23;45.22;97777.66;5004044;28;20396;-59
2021/06/30 11:40:16;;;;;;;7.15;3.42;;;;;;;24.34;44.93;97800.59;5010133;28;20322;-58